Time;durP1;ratioP1;P1;durP2;ratioP2;P2;SDS_P1;SDS_P2;PMS_P1;PMS_P2;Temp;Humidity;BMP_temperature;BMP_pressure;BME280_temperature;BME280_humidity;BME280_pressure;Samples;Min_cycle;Max_cycle;Signal;HPM_P1;HPM_P2
2024/02/17 00:00:22;;;;;;;;;;;5.70;80.80;;;;;;5026293;28;92048;-63
2024/02/17 00:02:48;;;;;;;;;;;5.70;80.90;;;;;;5028510;28;91890;-63
2024/02/17 00:05:14;;;;;;;;;;;5.70;80.80;;;;;;5026080;28;92013;-63
2024/02/17 00:07:39;;;;;;;;;;;5.70;80.80;;;;;;5026407;28;91266;-63
2024/02/17 00:10:05;;;;;;;;;;;5.70;80.80;;;;;;5025570;28;92532;-63
2024/02/17 00:12:31;;;;;;;;;;;5.70;80.80;;;;;;5025954;28;92027;-63
2024/02/17 00:14:56;;;;;;;;;;;5.70;80.80;;;;;;5025445;28;93256;-63
2024/02/17 00:17:22;;;;;;;;;;;5.70;80.80;;;;;;5024323;28;93682;-63
2024/02/17 00:19:48;;;;;;;;;;;5.70;80.80;;;;;;5025144;28;92165;-63
2024/02/17 00:22:14;;;;;;;;;;;5.70;80.80;;;;;;5025749;28;92008;-63
2024/02/17 00:24:40;;;;;;;;;;;5.60;80.80;;;;;;5025146;28;92511;-63
2024/02/17 00:27:05;;;;;;;;;;;5.70;80.90;;;;;;5024040;28;91923;-63
2024/02/17 00:29:31;;;;;;;;;;;5.60;80.80;;;;;;5025126;28;92436;-63
2024/02/17 00:31:56;;;;;;;;;;;5.60;80.90;;;;;;5025930;28;91435;-63
2024/02/17 00:34:23;;;;;;;;;;;5.60;80.80;;;;;;5025895;28;91999;-63
2024/02/17 00:36:48;;;;;;;;;;;5.60;80.80;;;;;;5024810;28;93775;-63
2024/02/17 00:39:14;;;;;;;;;;;5.60;80.90;;;;;;5024865;28;93006;-62
2024/02/17 00:41:40;;;;;;;;;;;5.60;80.90;;;;;;5025130;28;92605;-62
2024/02/17 00:44:05;;;;;;;;;;;5.60;80.80;;;;;;5025113;28;92360;-63
2024/02/17 00:46:31;;;;;;;;;;;5.60;80.80;;;;;;5028608;28;92039;-62
2024/02/17 00:48:57;;;;;;;;;;;5.60;80.90;;;;;;5024732;28;93472;-63
2024/02/17 00:51:23;;;;;;;;;;;5.50;81.00;;;;;;5025505;28;92017;-63
2024/02/17 00:53:48;;;;;;;;;;;5.50;80.80;;;;;;5025464;28;92563;-63
2024/02/17 00:56:14;;;;;;;;;;;5.60;80.80;;;;;;5025354;28;91648;-63
2024/02/17 00:58:39;;;;;;;;;;;5.50;80.80;;;;;;5024192;28;92156;-63
2024/02/17 01:01:05;;;;;;;;;;;5.50;80.80;;;;;;5025111;28;92274;-63
2024/02/17 01:03:31;;;;;;;;;;;5.50;80.80;;;;;;5023229;28;94483;-62
2024/02/17 01:05:56;;;;;;;;;;;5.50;80.80;;;;;;5021042;28;92172;-63
2024/02/17 01:08:22;;;;;;;;;;;5.50;80.90;;;;;;5024954;28;91891;-63
2024/02/17 01:10:48;;;;;;;;;;;5.50;80.80;;;;;;5024579;28;92003;-63
2024/02/17 01:13:13;;;;;;;;;;;5.50;81.00;;;;;;5024217;28;91944;-63
2024/02/17 01:15:39;;;;;;;;;;;5.50;80.90;;;;;;5022822;28;92472;-63
2024/02/17 01:18:04;;;;;;;;;;;5.50;80.80;;;;;;5024282;28;92125;-63
2024/02/17 01:20:30;;;;;;;;;;;5.40;80.80;;;;;;5021298;28;91743;-63
2024/02/17 01:22:56;;;;;;;;;;;5.50;80.80;;;;;;5024327;28;92334;-63
2024/02/17 01:25:23;;;;;;;;;;;5.40;80.80;;;;;;5024030;28;92107;-62
2024/02/17 01:27:49;;;;;;;;;;;5.40;80.80;;;;;;5024133;28;93091;-63
2024/02/17 01:30:15;;;;;;;;;;;5.40;80.80;;;;;;5024923;28;93299;-62
2024/02/17 01:32:40;;;;;;;;;;;5.40;80.70;;;;;;5024901;28;91917;-63
2024/02/17 01:35:06;;;;;;;;;;;5.40;80.70;;;;;;5023852;28;93564;-63
2024/02/17 01:37:33;;;;;;;;;;;5.40;80.80;;;;;;5024545;28;92096;-63
2024/02/17 01:39:59;;;;;;;;;;;5.40;80.80;;;;;;5024303;28;92955;-63
2024/02/17 01:42:25;;;;;;;;;;;5.40;80.80;;;;;;5023082;28;91978;-62
2024/02/17 01:44:51;;;;;;;;;;;5.30;80.80;;;;;;5020068;28;91283;-63
2024/02/17 01:47:16;;;;;;;;;;;5.40;80.80;;;;;;5019904;28;92101;-63
2024/02/17 01:49:42;;;;;;;;;;;5.30;80.80;;;;;;5023888;28;92446;-63
2024/02/17 01:52:08;;;;;;;;;;;5.30;80.80;;;;;;5026908;28;93106;-63
2024/02/17 01:54:33;;;;;;;;;;;5.30;80.80;;;;;;5024012;28;92468;-63
2024/02/17 01:56:59;;;;;;;;;;;5.30;80.80;;;;;;5023842;28;91887;-63
2024/02/17 01:59:25;;;;;;;;;;;5.30;80.70;;;;;;5024210;28;91880;-63
2024/02/17 02:01:51;;;;;;;;;;;5.30;80.70;;;;;;5022984;28;92408;-63
2024/02/17 02:04:17;;;;;;;;;;;5.30;80.80;;;;;;5023137;28;92150;-63
2024/02/17 02:06:43;;;;;;;;;;;5.30;80.80;;;;;;5022290;28;92115;-63
2024/02/17 02:09:08;;;;;;;;;;;5.30;80.70;;;;;;5023132;28;92824;-63
2024/02/17 02:11:34;;;;;;;;;;;5.20;80.70;;;;;;5023062;28;91948;-63
2024/02/17 02:14:15;;;;;;;;;;;5.20;80.80;;;;;;5023754;28;92372;-63
2024/02/17 02:16:41;;;;;;;;;;;5.20;80.80;;;;;;5019880;28;92922;-63
2024/02/17 02:19:07;;;;;;;;;;;5.20;80.80;;;;;;5024149;28;92614;-63
2024/02/17 02:21:35;;;;;;;;;;;5.20;80.70;;;;;;5023561;28;92339;-63
2024/02/17 02:24:00;;;;;;;;;;;5.20;80.70;;;;;;5023697;28;92017;-62
2024/02/17 02:26:26;;;;;;;;;;;5.20;80.80;;;;;;5024065;28;91992;-63
2024/02/17 02:28:51;;;;;;;;;;;5.20;80.70;;;;;;5023505;28;92433;-63
2024/02/17 02:31:17;;;;;;;;;;;5.20;80.70;;;;;;5023703;28;92015;-63
2024/02/17 02:33:43;;;;;;;;;;;5.20;80.70;;;;;;5024971;28;93016;-63
2024/02/17 02:36:08;;;;;;;;;;;5.20;80.60;;;;;;5023651;28;92061;-63
2024/02/17 02:38:34;;;;;;;;;;;5.20;80.60;;;;;;5023710;28;91990;-63
2024/02/17 02:41:00;;;;;;;;;;;5.20;80.50;;;;;;5018017;28;93372;-62
2024/02/17 02:43:25;;;;;;;;;;;5.20;80.70;;;;;;5023622;28;91960;-63
2024/02/17 02:45:51;;;;;;;;;;;5.20;80.60;;;;;;5023466;28;92285;-62
2024/02/17 02:48:17;;;;;;;;;;;5.20;80.50;;;;;;5023269;28;92866;-63
2024/02/17 02:50:42;;;;;;;;;;;5.10;80.50;;;;;;5023849;28;91961;-63
2024/02/17 02:53:08;;;;;;;;;;;5.20;80.50;;;;;;5023630;28;92110;-63
2024/02/17 02:55:34;;;;;;;;;;;5.10;80.40;;;;;;5025911;28;93685;-63
2024/02/17 02:58:00;;;;;;;;;;;5.20;80.40;;;;;;5023699;28;91647;-63
2024/02/17 03:00:26;;;;;;;;;;;5.10;80.40;;;;;;5023001;28;92419;-63
2024/02/17 03:02:51;;;;;;;;;;;5.10;80.40;;;;;;5021296;28;92010;-63
2024/02/17 03:05:17;;;;;;;;;;;5.10;80.40;;;;;;5022445;28;92986;-63
2024/02/17 03:07:42;;;;;;;;;;;5.10;80.50;;;;;;5021492;28;93734;-63
2024/02/17 03:10:08;;;;;;;;;;;5.10;80.50;;;;;;5019749;28;92160;-63
2024/02/17 03:12:34;;;;;;;;;;;5.10;80.60;;;;;;5023580;28;92399;-63
2024/02/17 03:15:01;;;;;;;;;;;5.10;80.40;;;;;;5022416;28;92624;-63
2024/02/17 03:17:27;;;;;;;;;;;5.00;80.40;;;;;;5025389;28;92009;-63
2024/02/17 03:19:53;;;;;;;;;;;5.00;80.50;;;;;;5020349;28;92431;-63
2024/02/17 03:22:19;;;;;;;;;;;5.00;80.40;;;;;;5025628;28;91486;-63
2024/02/17 03:24:45;;;;;;;;;;;5.00;80.40;;;;;;5026632;28;92523;-63
2024/02/17 03:27:11;;;;;;;;;;;5.00;80.40;;;;;;5025913;28;93465;-63
2024/02/17 03:29:37;;;;;;;;;;;5.00;80.40;;;;;;5025276;28;93021;-63
2024/02/17 03:32:03;;;;;;;;;;;5.00;80.30;;;;;;5026638;28;92003;-63
2024/02/17 03:34:29;;;;;;;;;;;5.00;80.30;;;;;;5025914;28;93622;-63
2024/02/17 03:36:54;;;;;;;;;;;5.00;80.30;;;;;;5026269;28;91967;-63
2024/02/17 03:39:22;;;;;;;;;;;5.00;80.30;;;;;;5028928;28;92793;-63
2024/02/17 03:41:48;;;;;;;;;;;5.00;80.30;;;;;;5026019;28;92075;-63
2024/02/17 03:44:14;;;;;;;;;;;5.00;80.30;;;;;;5026628;28;91846;-63
2024/02/17 03:46:40;;;;;;;;;;;5.00;80.30;;;;;;5026298;28;91809;-62
2024/02/17 03:49:06;;;;;;;;;;;4.90;80.30;;;;;;5024828;28;92038;-63
2024/02/17 03:51:31;;;;;;;;;;;5.00;80.40;;;;;;5023629;28;91760;-63
2024/02/17 03:53:57;;;;;;;;;;;4.90;80.20;;;;;;5025071;28;92975;-63
2024/02/17 03:56:23;;;;;;;;;;;5.00;80.30;;;;;;5021639;28;92023;-63
2024/02/17 03:58:48;;;;;;;;;;;4.90;80.30;;;;;;5025022;28;93171;-63
2024/02/17 04:01:14;;;;;;;;;;;4.90;80.40;;;;;;5028720;28;91998;-63
2024/02/17 04:03:40;;;;;;;;;;;4.90;80.50;;;;;;5025537;28;91938;-63
2024/02/17 04:06:05;;;;;;;;;;;4.90;80.40;;;;;;5023686;28;92281;-63
2024/02/17 04:08:31;;;;;;;;;;;4.90;80.40;;;;;;5025409;28;92208;-63
2024/02/17 04:10:58;;;;;;;;;;;4.90;80.40;;;;;;5023786;28;91653;-63
2024/02/17 04:13:26;;;;;;;;;;;4.80;80.30;;;;;;5025449;28;92497;-63
2024/02/17 04:15:52;;;;;;;;;;;4.80;80.30;;;;;;5025841;28;92019;-62
2024/02/17 04:18:18;;;;;;;;;;;4.80;80.30;;;;;;5025518;28;92752;-63
2024/02/17 04:20:43;;;;;;;;;;;4.90;80.20;;;;;;5027187;28;92423;-63
2024/02/17 04:23:09;;;;;;;;;;;4.80;80.20;;;;;;5025298;28;91917;-63
2024/02/17 04:25:37;;;;;;;;;;;4.80;80.20;;;;;;5025383;28;92588;-63
2024/02/17 04:28:04;;;;;;;;;;;4.80;80.10;;;;;;5025577;28;92021;-63
2024/02/17 04:30:30;;;;;;;;;;;4.80;80.10;;;;;;5025619;28;92869;-63
2024/02/17 04:32:55;;;;;;;;;;;4.80;80.10;;;;;;5023947;28;92578;-63
2024/02/17 04:35:21;;;;;;;;;;;4.70;80.20;;;;;;5026268;28;91274;-63
2024/02/17 04:37:47;;;;;;;;;;;4.80;80.20;;;;;;5025393;28;92125;-63
2024/02/17 04:40:15;;;;;;;;;;;4.70;80.20;;;;;;5025110;28;92482;-63
2024/02/17 04:42:41;;;;;;;;;;;4.70;80.10;;;;;;5027646;28;93106;-63
2024/02/17 04:45:07;;;;;;;;;;;4.80;80.20;;;;;;5024852;28;92655;-63
2024/02/17 04:47:32;;;;;;;;;;;4.70;80.10;;;;;;5025536;28;92008;-63
2024/02/17 04:49:58;;;;;;;;;;;4.70;80.10;;;;;;5025538;28;92002;-63
2024/02/17 04:52:23;;;;;;;;;;;4.70;80.20;;;;;;5024783;28;92384;-62
2024/02/17 04:54:49;;;;;;;;;;;4.70;80.20;;;;;;5025408;28;92118;-63
2024/02/17 04:57:15;;;;;;;;;;;4.70;80.20;;;;;;5025454;28;91986;-63
2024/02/17 04:59:40;;;;;;;;;;;4.70;80.10;;;;;;5025183;28;92993;-63
2024/02/17 05:02:06;;;;;;;;;;;4.70;80.20;;;;;;5024848;28;91926;-63
2024/02/17 05:04:31;;;;;;;;;;;4.60;80.00;;;;;;5027732;28;92996;-63
2024/02/17 05:06:57;;;;;;;;;;;4.60;80.00;;;;;;5024609;28;92849;-63
2024/02/17 05:09:22;;;;;;;;;;;4.60;80.10;;;;;;5025149;28;92697;-63
2024/02/17 05:11:48;;;;;;;;;;;4.60;80.60;;;;;;5024597;28;92424;-63
2024/02/17 05:14:18;;;;;;;;;;;4.60;80.00;;;;;;5023275;28;92102;-63
2024/02/17 05:16:44;;;;;;;;;;;4.60;80.10;;;;;;5022387;28;92022;-63
2024/02/17 05:19:10;;;;;;;;;;;4.60;80.10;;;;;;5022153;28;92442;-63
2024/02/17 05:21:36;;;;;;;;;;;4.60;80.10;;;;;;5022607;28;91973;-63
2024/02/17 05:24:01;;;;;;;;;;;4.60;80.10;;;;;;5024325;28;93104;-63
2024/02/17 05:26:33;;;;;;;;;;;4.50;80.00;;;;;;5027237;28;92421;-63
2024/02/17 05:28:59;;;;;;;;;;;4.60;80.10;;;;;;5023365;28;91981;-63
2024/02/17 05:31:26;;;;;;;;;;;4.50;80.10;;;;;;5023733;28;93446;-63
2024/02/17 05:33:52;;;;;;;;;;;4.50;80.20;;;;;;5024921;28;92083;-63
2024/02/17 05:36:17;;;;;;;;;;;4.50;80.10;;;;;;5024720;28;91767;-63
2024/02/17 05:38:43;;;;;;;;;;;4.50;80.10;;;;;;5023190;28;93658;-63
2024/02/17 05:41:08;;;;;;;;;;;4.50;80.20;;;;;;5023821;28;92123;-63
2024/02/17 05:43:34;;;;;;;;;;;4.50;80.20;;;;;;5024525;28;91840;-63
2024/02/17 05:46:00;;;;;;;;;;;4.50;80.20;;;;;;5023174;28;92322;-63
2024/02/17 05:48:25;;;;;;;;;;;4.50;80.10;;;;;;5027420;28;91337;-63
2024/02/17 05:50:53;;;;;;;;;;;4.50;80.10;;;;;;5019285;28;92547;-63
2024/02/17 05:53:19;;;;;;;;;;;4.40;80.10;;;;;;5020255;28;92060;-63
2024/02/17 05:55:46;;;;;;;;;;;4.50;80.10;;;;;;5019736;28;92847;-63
2024/02/17 05:58:11;;;;;;;;;;;4.40;80.10;;;;;;5022359;28;93430;-63
2024/02/17 06:00:37;;;;;;;;;;;4.50;80.10;;;;;;5023814;28;91954;-63
2024/02/17 06:03:03;;;;;;;;;;;4.40;80.10;;;;;;5022969;28;92260;-63
2024/02/17 06:05:29;;;;;;;;;;;4.40;80.00;;;;;;5023496;28;93439;-61
2024/02/17 06:07:54;;;;;;;;;;;4.40;80.10;;;;;;5023698;28;92062;-63
2024/02/17 06:10:20;;;;;;;;;;;4.40;80.10;;;;;;5026447;28;92581;-63
2024/02/17 06:12:47;;;;;;;;;;;4.40;80.10;;;;;;5024598;28;91305;-63
2024/02/17 06:15:13;;;;;;;;;;;4.40;80.00;;;;;;5023322;28;92063;-63
2024/02/17 06:17:42;;;;;;;;;;;4.40;80.00;;;;;;5023426;28;91973;-63
2024/02/17 06:22:55;;;;;;;;;;;4.40;80.10;;;;;;5024342;28;92311;-63
2024/02/17 06:25:20;;;;;;;;;;;4.40;80.20;;;;;;5023255;28;92948;-63
2024/02/17 06:27:46;;;;;;;;;;;4.40;80.00;;;;;;5024073;28;92069;-63
2024/02/17 06:30:14;;;;;;;;;;;4.40;80.00;;;;;;5026410;28;91955;-63
2024/02/17 06:32:43;;;;;;;;;;;4.40;80.10;;;;;;5023778;28;92133;-63
2024/02/17 06:35:09;;;;;;;;;;;4.30;80.00;;;;;;5019926;28;93000;-63
2024/02/17 06:37:35;;;;;;;;;;;4.40;80.10;;;;;;5022805;28;91698;-63
2024/02/17 06:40:01;;;;;;;;;;;4.40;80.00;;;;;;5023825;28;92124;-63
2024/02/17 06:42:27;;;;;;;;;;;4.40;80.00;;;;;;5023553;28;92037;-63
2024/02/17 06:44:52;;;;;;;;;;;4.30;79.90;;;;;;5022443;28;93582;-63
2024/02/17 06:47:19;;;;;;;;;;;4.30;79.90;;;;;;5023671;28;91895;-63
2024/02/17 06:49:45;;;;;;;;;;;4.30;80.00;;;;;;5023545;28;92070;-63
2024/02/17 06:52:11;;;;;;;;;;;4.30;80.00;;;;;;5023982;28;92738;-63
2024/02/17 06:54:37;;;;;;;;;;;4.30;80.00;;;;;;5023502;28;92074;-63
2024/02/17 06:57:02;;;;;;;;;;;4.30;80.00;;;;;;5021994;28;92582;-62
2024/02/17 06:59:28;;;;;;;;;;;4.30;80.00;;;;;;5022108;28;91984;-63
2024/02/17 07:01:54;;;;;;;;;;;4.30;80.00;;;;;;5022921;28;91755;-62
2024/02/17 07:04:19;;;;;;;;;;;4.30;79.90;;;;;;5022852;28;92539;-63
2024/02/17 07:06:45;;;;;;;;;;;4.30;80.00;;;;;;5023393;28;91791;-63
2024/02/17 07:09:20;;;;;;;;;;;4.30;80.00;;;;;;5021942;28;93071;-63
2024/02/17 07:11:46;;;;;;;;;;;4.30;80.00;;;;;;5020014;28;92470;-64
2024/02/17 07:14:14;;;;;;;;;;;4.30;80.00;;;;;;5026380;28;92050;-63
2024/02/17 07:16:40;;;;;;;;;;;4.30;80.00;;;;;;5022401;28;92114;-63
2024/02/17 07:19:05;;;;;;;;;;;4.30;80.00;;;;;;5023124;28;92126;-63
2024/02/17 07:21:32;;;;;;;;;;;4.30;80.00;;;;;;5022899;28;93111;-64
2024/02/17 07:23:58;;;;;;;;;;;4.30;80.00;;;;;;5022511;28;93375;-63
2024/02/17 07:26:23;;;;;;;;;;;4.30;80.00;;;;;;5023775;28;91163;-63
2024/02/17 07:28:49;;;;;;;;;;;4.20;80.00;;;;;;5021465;28;92307;-63
2024/02/17 07:31:16;;;;;;;;;;;4.30;80.00;;;;;;5022677;28;92514;-63
2024/02/17 07:33:43;;;;;;;;;;;4.30;80.00;;;;;;5022376;28;92939;-63
2024/02/17 07:36:09;;;;;;;;;;;4.30;80.00;;;;;;5025710;28;93867;-63
2024/02/17 07:38:34;;;;;;;;;;;4.30;80.00;;;;;;5022766;28;92114;-61
2024/02/17 07:41:00;;;;;;;;;;;4.30;80.00;;;;;;5022589;28;92015;-63
2024/02/17 07:43:25;;;;;;;;;;;4.30;80.10;;;;;;5021785;28;92474;-63
2024/02/17 07:45:51;;;;;;;;;;;4.30;80.10;;;;;;5022114;28;92096;-63
2024/02/17 07:48:18;;;;;;;;;;;4.30;80.20;;;;;;5022809;28;91949;-63
2024/02/17 07:50:44;;;;;;;;;;;4.30;80.20;;;;;;5022806;28;91685;-63
2024/02/17 07:53:11;;;;;;;;;;;4.30;80.20;;;;;;5021896;28;92408;-63
2024/02/17 07:55:37;;;;;;;;;;;4.30;80.30;;;;;;5021963;28;91945;-63
2024/02/17 07:58:06;;;;;;;;;;;4.20;80.30;;;;;;5024694;28;93463;-63
2024/02/17 08:00:32;;;;;;;;;;;4.30;80.30;;;;;;5022480;28;92665;-63
2024/02/17 08:02:57;;;;;;;;;;;4.30;80.30;;;;;;5020579;28;93076;-63
2024/02/17 08:05:23;;;;;;;;;;;4.30;80.30;;;;;;5017689;28;91991;-63
2024/02/17 08:07:48;;;;;;;;;;;4.30;80.50;;;;;;5023973;28;91946;-63
2024/02/17 08:10:14;;;;;;;;;;;4.30;80.60;;;;;;5021153;28;92401;-63
2024/02/17 08:12:40;;;;;;;;;;;4.30;80.60;;;;;;5021323;28;92000;-63
2024/02/17 08:15:06;;;;;;;;;;;4.20;80.70;;;;;;5026274;28;92919;-63
2024/02/17 08:17:33;;;;;;;;;;;4.20;80.70;;;;;;5025122;28;92720;-63
2024/02/17 08:19:58;;;;;;;;;;;4.20;80.60;;;;;;5028795;28;91809;-63
2024/02/17 08:22:24;;;;;;;;;;;4.30;80.70;;;;;;5024830;28;93160;-63
2024/02/17 08:24:50;;;;;;;;;;;4.30;80.60;;;;;;5025812;28;92111;-63
2024/02/17 08:27:15;;;;;;;;;;;4.20;80.70;;;;;;5025875;28;91874;-63
2024/02/17 08:29:41;;;;;;;;;;;4.20;80.70;;;;;;5025245;28;92638;-63
2024/02/17 08:32:06;;;;;;;;;;;4.20;80.70;;;;;;5025637;28;92000;-63
2024/02/17 08:34:32;;;;;;;;;;;4.20;80.80;;;;;;5025672;28;91919;-63
2024/02/17 08:36:57;;;;;;;;;;;4.20;80.80;;;;;;5022524;28;93581;-62
2024/02/17 08:39:23;;;;;;;;;;;4.20;80.80;;;;;;5028295;28;91318;-62
2024/02/17 08:41:48;;;;;;;;;;;4.20;81.50;;;;;;5024646;28;92572;-61
2024/02/17 08:44:14;;;;;;;;;;;4.20;81.70;;;;;;5025286;28;92142;-45
2024/02/17 08:46:40;;;;;;;;;;;4.20;82.10;;;;;;5023997;28;92892;-46
2024/02/17 08:49:05;;;;;;;;;;;4.40;82.70;;;;;;5018572;28;92495;-46
2024/02/17 08:51:31;;;;;;;;;;;4.50;82.10;;;;;;5025437;28;92093;-50
2024/02/17 08:53:57;;;;;;;;;;;4.60;81.60;;;;;;5025278;28;92015;-47
2024/02/17 08:56:24;;;;;;;;;;;4.60;81.90;;;;;;5024725;28;92485;-50
2024/02/17 08:58:50;;;;;;;;;;;4.70;80.90;;;;;;5025163;28;92063;-53
2024/02/17 09:01:15;;;;;;;;;;;4.70;80.90;;;;;;5024109;28;92031;-52
2024/02/17 09:03:44;;;;;;;;;;;4.70;81.60;;;;;;5025452;28;91326;-47
2024/02/17 09:06:10;;;;;;;;;;;4.70;81.10;;;;;;5024481;28;91889;-49
2024/02/17 09:08:35;;;;;;;;;;;4.80;81.20;;;;;;5023836;28;93576;-49
2024/02/17 09:11:01;;;;;;;;;;;4.80;81.60;;;;;;5023904;28;93092;-44
2024/02/17 09:13:26;;;;;;;;;;;4.80;81.40;;;;;;5024926;28;92751;-47
2024/02/17 09:15:52;;;;;;;;;;;4.80;81.30;;;;;;5024485;28;92421;-45
2024/02/17 09:18:18;;;;;;;;;;;4.80;81.70;;;;;;5021950;28;92130;-43
2024/02/17 09:20:43;;;;;;;;;;;4.80;81.90;;;;;;5020337;28;91913;-46
2024/02/17 09:23:09;;;;;;;;;;;4.80;81.50;;;;;;5027635;28;92503;-41
2024/02/17 09:25:35;;;;;;;;;;;4.80;81.70;;;;;;5021680;28;92057;-47
2024/02/17 09:28:00;;;;;;;;;;;4.70;81.90;;;;;;5021610;28;93015;-46
2024/02/17 09:30:26;;;;;;;;;;;4.70;82.00;;;;;;5024843;28;92078;-47
2024/02/17 09:32:51;;;;;;;;;;;4.70;82.30;;;;;;5016560;28;92737;-44
2024/02/17 09:35:18;;;;;;;;;;;4.70;82.00;;;;;;5023694;28;93353;-41
2024/02/17 09:37:46;;;;;;;;;;;4.80;82.30;;;;;;5024610;28;92043;-47
2024/02/17 09:40:12;;;;;;;;;;;4.70;82.20;;;;;;5023081;28;91969;-44
2024/02/17 09:42:38;;;;;;;;;;;4.80;82.20;;;;;;5022769;28;92443;-48
2024/02/17 09:45:04;;;;;;;;;;;4.80;82.50;;;;;;5026683;28;92063;-54
2024/02/17 09:47:31;;;;;;;;;;;4.90;82.50;;;;;;5023527;28;92447;-49
2024/02/17 09:49:58;;;;;;;;;;;4.90;82.70;;;;;;5017456;28;92148;-51
2024/02/17 09:52:24;;;;;;;;;;;4.90;82.60;;;;;;5025022;28;91698;-52
2024/02/17 09:54:50;;;;;;;;;;;4.90;82.40;;;;;;5023852;28;93519;-56
2024/02/17 09:57:17;;;;;;;;;;;4.90;82.40;;;;;;5023257;28;92093;-54
2024/02/17 09:59:43;;;;;;;;;;;5.00;82.40;;;;;;5020995;28;93594;-55
2024/02/17 10:02:09;;;;;;;;;;;5.00;82.10;;;;;;5018707;28;92502;-60
2024/02/17 10:04:50;;;;;;;;;;;5.10;82.90;;;;;;5017254;28;92073;-57
2024/02/17 10:07:16;;;;;;;;;;;5.10;82.20;;;;;;5016870;28;92687;-59
2024/02/17 10:09:41;;;;;;;;;;;5.20;82.20;;;;;;5022019;28;91909;-62
2024/02/17 10:12:09;;;;;;;;;;;5.20;82.20;;;;;;5018820;28;92397;-61
2024/02/17 10:14:35;;;;;;;;;;;5.30;81.90;;;;;;5022487;28;93748;-47
2024/02/17 10:17:00;;;;;;;;;;;5.30;81.40;;;;;;5022773;28;91186;-58
2024/02/17 10:19:28;;;;;;;;;;;5.40;81.00;;;;;;5022431;28;92035;-46
2024/02/17 10:21:53;;;;;;;;;;;5.40;81.40;;;;;;5020085;28;92460;-47
2024/02/17 10:24:22;;;;;;;;;;;5.30;81.60;;;;;;5019941;28;93028;-47
2024/02/17 10:26:54;;;;;;;;;;;5.30;82.50;;;;;;5023842;28;92579;-59
2024/02/17 10:29:19;;;;;;;;;;;5.30;82.40;;;;;;5010513;28;92559;-44
2024/02/17 10:31:48;;;;;;;;;;;5.40;81.50;;;;;;5021624;28;92096;-44
2024/02/17 10:34:14;;;;;;;;;;;5.40;81.00;;;;;;5023037;28;93689;-47
2024/02/17 10:36:40;;;;;;;;;;;5.50;80.60;;;;;;5022377;28;91989;-43
2024/02/17 10:39:09;;;;;;;;;;;5.50;79.80;;;;;;5021113;28;92039;-45
2024/02/17 10:41:35;;;;;;;;;;;5.50;81.20;;;;;;5014907;28;93203;-46
2024/02/17 10:44:01;;;;;;;;;;;5.60;81.20;;;;;;5023278;28;92102;-53
2024/02/17 10:46:27;;;;;;;;;;;5.60;81.60;;;;;;5020194;28;93794;-46
2024/02/17 10:48:58;;;;;;;;;;;5.60;81.90;;;;;;5021671;28;94482;-41
2024/02/17 10:51:24;;;;;;;;;;;5.80;81.50;;;;;;5020161;28;93818;-42
2024/02/17 10:53:54;;;;;;;;;;;5.90;81.60;;;;;;5022948;28;92563;-40
2024/02/17 10:56:20;;;;;;;;;;;6.00;80.80;;;;;;5019949;28;92785;-45
2024/02/17 10:58:46;;;;;;;;;;;6.10;78.90;;;;;;5023254;28;92070;-43
2024/02/17 11:01:16;;;;;;;;;;;6.00;79.20;;;;;;5019492;28;92540;-44
2024/02/17 11:03:42;;;;;;;;;;;6.10;79.50;;;;;;5022118;28;92150;-44
2024/02/17 11:06:10;;;;;;;;;;;6.10;77.90;;;;;;5019499;28;92975;-46
2024/02/17 11:08:36;;;;;;;;;;;6.10;78.40;;;;;;5022268;28;92564;-47
2024/02/17 11:11:20;;;;;;;;;;;6.10;79.60;;;;;;5026199;28;92040;-45
2024/02/17 11:13:47;;;;;;;;;;;6.10;80.10;;;;;;5020020;28;93335;-42
2024/02/17 11:16:12;;;;;;;;;;;6.20;79.40;;;;;;5022375;28;92043;-45
2024/02/17 11:18:39;;;;;;;;;;;6.30;79.90;;;;;;5020902;28;92041;-45
2024/02/17 11:21:05;;;;;;;;;;;6.40;79.00;;;;;;5018276;28;93967;-46
2024/02/17 11:23:32;;;;;;;;;;;6.40;78.50;;;;;;5021677;28;92374;-41
2024/02/17 11:25:58;;;;;;;;;;;6.40;78.00;;;;;;5022081;28;92957;-44
2024/02/17 11:28:24;;;;;;;;;;;6.40;78.70;;;;;;5017926;28;92529;-46
2024/02/17 11:30:53;;;;;;;;;;;6.40;78.10;;;;;;5023083;28;91782;-46
2024/02/17 11:33:21;;;;;;;;;;;6.40;78.10;;;;;;5025260;28;92154;-49
2024/02/17 11:35:48;;;;;;;;;;;6.60;78.10;;;;;;5019833;28;92083;-40
2024/02/17 11:38:14;;;;;;;;;;;6.50;79.00;;;;;;5015101;28;93375;-41
2024/02/17 11:40:40;;;;;;;;;;;6.60;78.10;;;;;;5021530;28;93572;-45
2024/02/17 11:43:05;;;;;;;;;;;6.60;78.40;;;;;;5024330;28;91998;-43
2024/02/17 11:45:31;;;;;;;;;;;6.70;78.10;;;;;;5026385;28;91909;-41
2024/02/17 11:47:57;;;;;;;;;;;6.70;77.40;;;;;;5017037;28;92482;-41
2024/02/17 11:50:22;;;;;;;;;;;6.80;75.90;;;;;;5024448;28;92027;-47
2024/02/17 11:52:49;;;;;;;;;;;6.80;76.20;;;;;;5025215;28;91977;-40
2024/02/17 11:55:15;;;;;;;;;;;6.90;77.50;;;;;;5029498;28;91722;-46
2024/02/17 11:57:41;;;;;;;;;;;6.90;76.60;;;;;;5026048;28;92020;-44
2024/02/17 12:00:11;;;;;;;;;;;7.00;77.20;;;;;;5025255;28;92637;-42
2024/02/17 12:02:40;;;;;;;;;;;7.00;77.70;;;;;;5021551;28;92863;-39
2024/02/17 12:05:06;;;;;;;;;;;7.20;76.00;;;;;;5023937;28;93837;-39
2024/02/17 12:07:32;;;;;;;;;;;7.30;75.50;;;;;;5021225;28;92580;-48
2024/02/17 12:09:57;;;;;;;;;;;7.30;74.80;;;;;;5025494;28;92070;-45
2024/02/17 12:12:23;;;;;;;;;;;7.30;75.10;;;;;;5024862;28;91957;-43
2024/02/17 12:14:52;;;;;;;;;;;7.30;75.00;;;;;;5019737;28;93475;-43
2024/02/17 12:17:18;;;;;;;;;;;7.30;75.30;;;;;;5018242;28;92250;-41
2024/02/17 12:19:44;;;;;;;;;;;7.30;74.00;;;;;;5023754;28;92932;-39
2024/02/17 12:22:10;;;;;;;;;;;7.40;73.70;;;;;;5023627;28;92107;-43
2024/02/17 12:24:36;;;;;;;;;;;7.40;74.60;;;;;;5025758;28;92091;-41
2024/02/17 12:27:03;;;;;;;;;;;7.40;74.80;;;;;;5022673;28;94274;-40
2024/02/17 12:29:28;;;;;;;;;;;7.40;74.30;;;;;;5019175;28;92088;-43
2024/02/17 12:31:54;;;;;;;;;;;7.50;73.40;;;;;;5024719;28;92856;-41
2024/02/17 12:34:27;;;;;;;;;;;7.60;74.30;;;;;;5020572;28;92481;-41
2024/02/17 12:36:53;;;;;;;;;;;7.60;74.20;;;;;;5024616;28;92071;-40
2024/02/17 12:39:18;;;;;;;;;;;7.60;74.00;;;;;;5022597;28;92153;-40
2024/02/17 12:41:44;;;;;;;;;;;7.60;74.80;;;;;;5025123;28;92319;-41
2024/02/17 12:44:14;;;;;;;;;;;7.70;74.60;;;;;;5025764;28;91811;-40
2024/02/17 12:46:39;;;;;;;;;;;7.80;73.80;;;;;;5023112;28;95109;-43
2024/02/17 12:49:08;;;;;;;;;;;7.80;72.90;;;;;;5021362;28;91992;-44
2024/02/17 12:51:37;;;;;;;;;;;7.70;74.50;;;;;;5023863;28;92902;-43
2024/02/17 12:54:02;;;;;;;;;;;7.60;75.40;;;;;;5023291;28;93612;-43
2024/02/17 12:56:28;;;;;;;;;;;7.50;75.70;;;;;;5022781;28;92596;-43
2024/02/17 12:58:54;;;;;;;;;;;7.50;76.00;;;;;;5023381;28;91922;-42
2024/02/17 13:01:19;;;;;;;;;;;7.50;76.00;;;;;;5024800;28;92108;-44
2024/02/17 13:03:45;;;;;;;;;;;7.50;76.10;;;;;;5024372;28;92047;-44
2024/02/17 13:06:11;;;;;;;;;;;7.50;76.30;;;;;;5014768;28;93803;-44
2024/02/17 13:08:36;;;;;;;;;;;7.50;76.40;;;;;;5020661;28;92735;-43
2024/02/17 13:11:03;;;;;;;;;;;7.50;76.70;;;;;;5021104;28;93604;-43
2024/02/17 13:13:29;;;;;;;;;;;7.40;76.90;;;;;;5023638;28;93415;-43
2024/02/17 13:15:54;;;;;;;;;;;7.40;77.00;;;;;;5021737;28;92810;-42
2024/02/17 13:18:20;;;;;;;;;;;7.40;77.10;;;;;;5023889;28;93838;-43
2024/02/17 13:20:46;;;;;;;;;;;7.40;77.30;;;;;;5025466;28;93616;-43
2024/02/17 13:23:11;;;;;;;;;;;7.40;77.60;;;;;;5023993;28;92146;-42
2024/02/17 13:25:37;;;;;;;;;;;7.30;77.70;;;;;;5017035;28;92487;-45
2024/02/17 13:28:03;;;;;;;;;;;7.40;76.80;;;;;;5024601;28;92105;-47
2024/02/17 13:30:28;;;;;;;;;;;7.40;77.30;;;;;;5016069;28;92946;-46
2024/02/17 13:32:54;;;;;;;;;;;7.40;77.40;;;;;;5021489;28;91826;-47
2024/02/17 13:35:19;;;;;;;;;;;7.40;77.50;;;;;;5020882;28;92051;-44
2024/02/17 13:37:45;;;;;;;;;;;7.50;73.60;;;;;;5023651;28;92057;-40
2024/02/17 13:40:11;;;;;;;;;;;7.70;72.30;;;;;;5022725;28;93554;-44
2024/02/17 13:42:37;;;;;;;;;;;7.90;68.30;;;;;;5026775;28;91745;-48
2024/02/17 13:45:03;;;;;;;;;;;8.00;68.20;;;;;;5022029;28;92638;-44
2024/02/17 13:47:35;;;;;;;;;;;8.00;69.30;;;;;;5023656;28;91985;-46
2024/02/17 13:50:08;;;;;;;;;;;8.10;67.40;;;;;;5019428;28;93040;-49
2024/02/17 13:52:33;;;;;;;;;;;8.30;69.30;;;;;;5019712;28;92271;-58
2024/02/17 13:54:59;;;;;;;;;;;8.30;68.80;;;;;;5018564;28;92109;-52
2024/02/17 13:57:25;;;;;;;;;;;8.30;69.10;;;;;;5009278;28;94173;-49
2024/02/17 13:59:51;;;;;;;;;;;8.40;68.50;;;;;;5013458;28;92606;-48
2024/02/17 14:02:17;;;;;;;;;;;8.40;69.40;;;;;;5010387;28;92128;-43
2024/02/17 14:04:43;;;;;;;;;;;8.40;68.90;;;;;;5013346;28;93322;-43
2024/02/17 14:11:35;;;;;;;;;;;13.70;99.90;;;;;;5056676;27;80236;-43
2024/02/17 14:14:01;;;;;;;;;;;15.50;99.90;;;;;;5038602;27;80765;-38
2024/02/17 14:16:27;;;;;;;;;;;16.30;93.80;;;;;;5041060;28;82855;-37
2024/02/17 14:18:53;;;;;;;;;;;16.90;91.20;;;;;;5038409;28;80940;-37
2024/02/17 14:21:18;;;;;;;;;;;17.20;90.60;;;;;;5041121;28;80184;-37
2024/02/17 14:23:49;;;;;;;;;;;17.30;90.30;;;;;;5037828;28;80661;-37
2024/02/17 14:26:14;;;;;;;;;;;17.50;90.30;;;;;;5035401;28;82739;-37
2024/02/17 14:28:41;;;;;;;;;;;17.50;90.20;;;;;;5039608;28;80206;-41